Αναφορές METAR

 

LGKZ - Kozani (civ/Army, Greece
Distance from station: ΝΔ 41km
Ενημερώθηκε: 01/04/2020 16:20
Ασθενής βροχή
Ασθενής βροχή
 Ανεμος από Α
Ανεμος: Α 9 km/h
Θερμοκρασία: 5°C
Wind Chill: 3°C
Σημείο Δρόσου: 5°C
Υγρασία: 100%
Βαρόμετρο: 1008 hPa
Περίληψη: Ασθενής βροχή
2020/04/01 13:20 LGKZ 011320Z AUTO 10005KT //// -RA ////// 05/05 Q1008 RE//
LGTS - Thessaloniki/Mik, Greece
Distance from station: Α 64km
Ενημερώθηκε: 01/04/2020 16:50
Σχεδόν νεφελώδης
Σχεδόν νεφελώδης
 Ανεμος από ΝΑ
Ανεμος: ΝΑ 13 km/h
Θερμοκρασία: 10°C
Wind Chill: 8°C
Σημείο Δρόσου: 5°C
Υγρασία: 71%
Βαρόμετρο: 1011 hPa
Clouds: Σχεδόν νεφελώδης
Visibility: 10 km
Cloud details: Few Clouds 244 m
Σχεδόν νεφελώδης 762 m
2020/04/01 13:50 LGTS 011350Z 13007KT 9999 FEW008 BKN025 10/05 Q1011 NOSIG
 
LGIO - Ioannina, Greece
Distance from station: ΝΔ 149km
Ενημερώθηκε: 01/04/2020 16:50
Ασθενής βροχή
Ασθενής βροχή
 Ανεμος από ΝΝΑ
Ανεμος: ΝΝΑ 11 km/h
Θερμοκρασία: 9°C
Wind Chill: 7°C
Σημείο Δρόσου: 8°C
Υγρασία: 94%
Βαρόμετρο: 1007 hPa
Περίληψη: Ασθενής βροχή
2020/04/01 13:50 LGIO 011350Z AUTO 15006KT //// -RA ////// 09/08 Q1007 RE//
LGBL - Nea Anchialos, Greece
Distance from station: ΝΝΑ 154km
Ενημερώθηκε: 01/04/2020 16:50
Ασθενής βροχή, Συννεφιά
Ασθενής βροχή, Συννεφιά
 Ανεμος από Α
Ανεμος: Α 31 km/h
Θερμοκρασία: 11°C
Σημείο Δρόσου: 8°C
Υγρασία: 82%
Βαρόμετρο: 1010 hPa
Περίληψη: Ασθενής βροχή
Clouds: Συννεφιά
Visibility: 8 km
Cloud details: Few Clouds 305 m
Σχεδόν νεφελώδης 762 m
Συννεφιά 2134 m
2020/04/01 13:50 LGBL 011350Z 10017KT 8000 -RA FEW010 BKN025 OVC070 11/08 Q1010
 
LGSK - Skiathos Island, Greece
Distance from station: ΝΑ 185km
Ενημερώθηκε: 01/04/2020 14:50
NOT Current
Σχεδόν νεφελώδης
Σχεδόν νεφελώδης
 Ανεμος από ΒΑ
Ανεμος: ΒΑ 11 km/h
Θερμοκρασία: 12°C
Σημείο Δρόσου: 7°C
Υγρασία: 72%
Βαρόμετρο: 1013 hPa
Clouds: Σχεδόν νεφελώδης
Visibility: 8 km
Cloud details: Μερικώς νεφελώδης 305 m
Σχεδόν νεφελώδης 762 m
2020/04/01 11:50 LGSK 011150Z 04006KT 8000 SCT010 BKN025 12/07 Q1013
LGKV - Kavala/Chrisoupo, Greece
Distance from station: ΑΒΑ 208km
Ενημερώθηκε: 01/04/2020 16:50
Συννεφιά
Συννεφιά
 Ανεμος από ΑΒΑ
Ανεμος: ΑΒΑ 20 km/h
Θερμοκρασία: 8°C
Wind Chill: 4°C
Σημείο Δρόσου: 0°C
Υγρασία: 57%
Βαρόμετρο: 1015 hPa
Clouds: Συννεφιά
Visibility: 10 km
Cloud details: Σχεδόν νεφελώδης 914 m
Συννεφιά 2438 m
2020/04/01 13:50 LGKV 011350Z 06011KT 9999 BKN030 OVC080 08/M00 Q1015
 
LGPZ - Preveza/Aktion, Greece
Distance from station: ΝΔ 217km
Ενημερώθηκε: 01/04/2020 16:50
Σχεδόν νεφελώδης
Σχεδόν νεφελώδης
 Ανεμος από Δ
Ανεμος: Δ 24 km/h
Θερμοκρασία: 13°C
Σημείο Δρόσου: 11°C
Υγρασία: 88%
Βαρόμετρο: 1010 hPa
Clouds: Σχεδόν νεφελώδης
Visibility: 10 km
Cloud details: Few Clouds 610 m
Μερικώς νεφελώδης 762 m
Σχεδόν νεφελώδης 2134 m
2020/04/01 13:50 LGPZ 011350Z 26013KT 9999 FEW020TCU SCT025 BKN070 13/11 Q1010
LGKR - Ioannis Kapodist, Greece
Distance from station: ΔΝΔ 219km
Ενημερώθηκε: 01/04/2020 16:50
Ασθενής βροχή, Σχεδόν νεφελώδης
Ασθενής βροχή, Σχεδόν νεφελώδης
 Ανεμος από ΔΒΔ
Ανεμος: ΔΒΔ 15 km/h
Θερμοκρασία: 9°C
Wind Chill: 7°C
Σημείο Δρόσου: 8°C
Υγρασία: 94%
Βαρόμετρο: 1010 hPa
Περίληψη: Ασθενής βροχή
Clouds: Σχεδόν νεφελώδης
Visibility: 10 km
Cloud details: Few Clouds 366 m
Few Clouds 549 m
Μερικώς νεφελώδης 762 m
Σχεδόν νεφελώδης 2438 m
2020/04/01 13:50 LGKR 011350Z 29008KT 9999 -RA FEW012 FEW018TCU SCT025 BKN080 09/08 Q1010 NOSIG
 
LGSY - Skiros, Greece
Distance from station: ΝΑ 261km
Ενημερώθηκε: 01/04/2020 16:50
Σχεδόν νεφελώδης
Σχεδόν νεφελώδης
 Ανεμος από ΑΒΑ
Ανεμος: ΑΒΑ 15 km/h
Θερμοκρασία: 12°C
Σημείο Δρόσου: 6°C
Υγρασία: 67%
Βαρόμετρο: 1012 hPa
Clouds: Σχεδόν νεφελώδης
Visibility: 10 km
Cloud details: Few Clouds 549 m
Σχεδόν νεφελώδης 762 m
2020/04/01 13:50 LGSY 011350Z 06008KT 9999 FEW018 BKN025 12/06 Q1012 BLU
LGLM - Limnos Island Ar, Greece
Distance from station: ΑΝΑ 266km
Ενημερώθηκε: 01/04/2020 16:50
Σχεδόν νεφελώδης
Σχεδόν νεφελώδης
 Ανεμος από ΑΒΑ
Ανεμος: ΑΒΑ 24 km/h, Ριπή: 43 km/h
Θερμοκρασία: 10°C
Wind Chill: 7°C
Σημείο Δρόσου: 4°C
Υγρασία: 67%
Βαρόμετρο: 1013 hPa
Clouds: Σχεδόν νεφελώδης
Visibility: 10 km
Cloud details: Few Clouds 305 m
Σχεδόν νεφελώδης 610 m
2020/04/01 13:50 LGLM 011350Z 07013G23KT 9999 FEW010 BKN020 10/04 Q1013
 
LGRX - Araxos (civ/Afb), Greece
Distance from station: ΝΝΔ 271km
Ενημερώθηκε: 01/04/2020 16:50
Ασθενής βροχή, Σχεδόν νεφελώδης
Ασθενής βροχή, Σχεδόν νεφελώδης
 Ανεμος από ΝΝΔ
Ανεμος: ΝΝΔ 19 km/h
Θερμοκρασία: 15°C
Σημείο Δρόσου: 11°C
Υγρασία: 77%
Βαρόμετρο: 1010 hPa
Περίληψη: Ασθενής βροχή
Clouds: Σχεδόν νεφελώδης
Visibility: 8 km
Cloud details: Σχεδόν νεφελώδης 549 m
Σχεδόν νεφελώδης 2438 m
2020/04/01 13:50 LGRX 011350Z 20010KT 8000 -RA BKN018 BKN080 15/11 Q1010
LGEL - Elefsis (hel-Afb, Greece
Distance from station: ΝΝΑ 297km
Ενημερώθηκε: 01/04/2020 16:50
Ασθενής βροχή, Σχεδόν νεφελώδης
Ασθενής βροχή, Σχεδόν νεφελώδης
 Ανεμος από Ν
Ανεμος: Ν 20 km/h
Θερμοκρασία: 14°C
Σημείο Δρόσου: 10°C
Υγρασία: 77%
Βαρόμετρο: 1010 hPa
Περίληψη: Ασθενής βροχή
Clouds: Σχεδόν νεφελώδης
Visibility: 8 km
Cloud details: Few Clouds 762 m
Σχεδόν νεφελώδης 914 m
2020/04/01 13:50 LGEL 011350Z 17011KT 8000 4000N -RA FEW025 BKN030 14/10 Q1010
 
LGAD - Andravida (civ/A, Greece
Distance from station: ΝΝΔ 301km
Ενημερώθηκε: 01/04/2020 16:50
Σχεδόν νεφελώδης
Σχεδόν νεφελώδης
 Ανεμος από Ν
Ανεμος: Ν 19 km/h
Θερμοκρασία: 15°C
Σημείο Δρόσου: 12°C
Υγρασία: 82%
Βαρόμετρο: 1011 hPa
Clouds: Σχεδόν νεφελώδης
Visibility: 10 km
Cloud details: Few Clouds 457 m
Σχεδόν νεφελώδης 2438 m
2020/04/01 13:50 LGAD 011350Z 19010KT 9999 FEW015 BKN080 15/12 Q1011
LGKF - Kefallinia, Greece
Distance from station: ΝΝΔ 305km
Ενημερώθηκε: 01/04/2020 16:50
Σχεδόν νεφελώδης
Σχεδόν νεφελώδης
 Ανεμος από ΔΒΔ
Ανεμος: ΔΒΔ 15 km/h
Θερμοκρασία: 15°C
Σημείο Δρόσου: 11°C
Υγρασία: 77%
Βαρόμετρο: 1011 hPa
Clouds: Σχεδόν νεφελώδης
Visibility: 10 km
Cloud details: Few Clouds 457 m
Μερικώς νεφελώδης 610 m
Σχεδόν νεφελώδης 2134 m
2020/04/01 13:50 LGKF 011350Z 30008KT 9999 FEW015 SCT020 BKN070 15/11 Q1011